APX641 LEGE-EBLG
Flight info
| Callsign | APX641 |
|---|---|
| Flight time | 1h 31m |
| Altitude | 34000 |
| Route | GEANT DCT KORAB DCT MINPA DCT UTUVA DCT OBURO DCT ERTIP DCT REMGO DCT KOMOB DCT LNO |
| Aircraft | C25B/M-SDE2E3FGHRWXY/LB1 |
Departure
| Time | 2026-05-05 15:28 |
|---|---|
| Airport | Girona-Costa Brava Airport (LEGE) |
Arrival
| Time | 2026-05-05 16:59 |
|---|---|
| Airport | Liège Airport (EBLG) |
| Time | Latitude | Longitude | Altitude | Speed | Heading |
|---|---|---|---|---|---|
| 2026-05-05 15:16 | 41.90355 | 2.76496 | 430 ft | 0 kts | 15° |
| 2026-05-05 15:23 | 41.90362 | 2.76494 | 430 ft | 2 kts | 304° |
| 2026-05-05 15:24 | 41.90329 | 2.76483 | 429 ft | 8 kts | 192° |
| 2026-05-05 15:24 | 41.90322 | 2.76422 | 431 ft | 9 kts | 285° |
| 2026-05-05 15:24 | 41.90371 | 2.76391 | 434 ft | 11 kts | 15° |
| 2026-05-05 15:24 | 41.90467 | 2.76426 | 436 ft | 17 kts | 15° |
| 2026-05-05 15:25 | 41.90596 | 2.76474 | 440 ft | 21 kts | 17° |
| 2026-05-05 15:25 | 41.90745 | 2.76533 | 448 ft | 23 kts | 16° |
| 2026-05-05 15:25 | 41.90897 | 2.76590 | 456 ft | 22 kts | 15° |
| 2026-05-05 15:25 | 41.91038 | 2.76644 | 458 ft | 21 kts | 15° |
| 2026-05-05 15:26 | 41.91174 | 2.76694 | 460 ft | 20 kts | 15° |
| 2026-05-05 15:26 | 41.91305 | 2.76745 | 461 ft | 19 kts | 16° |
| 2026-05-05 15:26 | 41.91387 | 2.76773 | 462 ft | 13 kts | 354° |
| 2026-05-05 15:26 | 41.91436 | 2.76742 | 465 ft | 2 kts | 330° |
| 2026-05-05 15:27 | 41.91438 | 2.76741 | 465 ft | 0 kts | 330° |
| 2026-05-05 15:27 | 41.91480 | 2.76709 | 467 ft | 16 kts | 330° |
| 2026-05-05 15:27 | 41.91541 | 2.76606 | 473 ft | 7 kts | 224° |
| 2026-05-05 15:27 | 41.91493 | 2.76585 | 473 ft | 25 kts | 195° |
| 2026-05-05 15:28 | 41.90946 | 2.76376 | 502 ft | 136 kts | 196° |
| 2026-05-05 15:28 | 41.89830 | 2.75979 | 1161 ft | 193 kts | 195° |
| 2026-05-05 15:28 | 41.88435 | 2.75510 | 2390 ft | 216 kts | 194° |
| 2026-05-05 15:28 | 41.86961 | 2.74973 | 3375 ft | 228 kts | 196° |
| 2026-05-05 15:29 | 41.85388 | 2.74401 | 4414 ft | 234 kts | 194° |
| 2026-05-05 15:29 | 41.83816 | 2.73850 | 5416 ft | 238 kts | 195° |
| 2026-05-05 15:29 | 41.82164 | 2.73259 | 6207 ft | 253 kts | 195° |
| 2026-05-05 15:29 | 41.80514 | 2.72423 | 7114 ft | 256 kts | 213° |
| 2026-05-05 15:30 | 41.79190 | 2.70805 | 8009 ft | 260 kts | 229° |
| 2026-05-05 15:30 | 41.78362 | 2.68649 | 8836 ft | 264 kts | 253° |
| 2026-05-05 15:30 | 41.78103 | 2.66170 | 9386 ft | 281 kts | 274° |
| 2026-05-05 15:30 | 41.78683 | 2.63583 | 9842 ft | 295 kts | 295° |
| 2026-05-05 15:31 | 41.79967 | 2.61450 | 10574 ft | 299 kts | 321° |
| 2026-05-05 15:31 | 41.81809 | 2.60145 | 11232 ft | 304 kts | 344° |
| 2026-05-05 15:31 | 41.83925 | 2.59889 | 11864 ft | 308 kts | 357° |
| 2026-05-05 15:31 | 41.86076 | 2.59691 | 12488 ft | 311 kts | 355° |
| 2026-05-05 15:32 | 41.88251 | 2.59552 | 13087 ft | 315 kts | 358° |
| 2026-05-05 15:32 | 41.90453 | 2.59422 | 13669 ft | 318 kts | 356° |
| 2026-05-05 15:32 | 41.92673 | 2.59257 | 14219 ft | 321 kts | 356° |
| 2026-05-05 15:32 | 41.94917 | 2.59097 | 14753 ft | 324 kts | 356° |
| 2026-05-05 15:33 | 41.97182 | 2.58934 | 15260 ft | 328 kts | 357° |
| 2026-05-05 15:33 | 41.99442 | 2.58784 | 15748 ft | 330 kts | 356° |
| 2026-05-05 15:33 | 42.01748 | 2.58617 | 16213 ft | 333 kts | 356° |
| 2026-05-05 15:33 | 42.04083 | 2.58450 | 16665 ft | 336 kts | 356° |
| 2026-05-05 15:34 | 42.06428 | 2.58285 | 17094 ft | 339 kts | 357° |
| 2026-05-05 15:34 | 42.08781 | 2.57986 | 17466 ft | 342 kts | 347° |
| 2026-05-05 15:34 | 42.11033 | 2.56938 | 17860 ft | 343 kts | 336° |
| 2026-05-05 15:34 | 42.13069 | 2.55253 | 18223 ft | 345 kts | 321° |
| 2026-05-05 15:35 | 42.14932 | 2.53204 | 18578 ft | 347 kts | 321° |
| 2026-05-05 15:35 | 42.16821 | 2.51152 | 18938 ft | 349 kts | 320° |
| 2026-05-05 15:35 | 42.18688 | 2.49053 | 19275 ft | 351 kts | 320° |
| 2026-05-05 15:35 | 42.20570 | 2.46971 | 19601 ft | 354 kts | 320° |
| 2026-05-05 15:36 | 42.22475 | 2.44859 | 19913 ft | 356 kts | 320° |
| 2026-05-05 15:36 | 42.24400 | 2.42739 | 20219 ft | 358 kts | 320° |
| 2026-05-05 15:36 | 42.26326 | 2.40589 | 20511 ft | 360 kts | 320° |
| 2026-05-05 15:36 | 42.28266 | 2.38440 | 20788 ft | 362 kts | 320° |
| 2026-05-05 15:37 | 42.30212 | 2.36273 | 21058 ft | 363 kts | 320° |
| 2026-05-05 15:37 | 42.32175 | 2.34096 | 21315 ft | 365 kts | 320° |
| 2026-05-05 15:37 | 42.34142 | 2.31900 | 21566 ft | 367 kts | 320° |
| 2026-05-05 15:37 | 42.36117 | 2.29701 | 21807 ft | 369 kts | 320° |
| 2026-05-05 15:38 | 42.38100 | 2.27490 | 22036 ft | 370 kts | 320° |
| 2026-05-05 15:38 | 42.40195 | 2.25458 | 22207 ft | 373 kts | 331° |
| 2026-05-05 15:38 | 42.42579 | 2.24056 | 22415 ft | 374 kts | 341° |
| 2026-05-05 15:38 | 42.45132 | 2.23353 | 22602 ft | 376 kts | 353° |
| 2026-05-05 15:39 | 42.47748 | 2.23346 | 22777 ft | 378 kts | 6° |
| 2026-05-05 15:39 | 42.50298 | 2.24040 | 22964 ft | 379 kts | 14° |
| 2026-05-05 15:39 | 42.52858 | 2.24925 | 23148 ft | 380 kts | 14° |
| 2026-05-05 15:39 | 42.55425 | 2.25825 | 23323 ft | 382 kts | 14° |
| 2026-05-05 15:40 | 42.58001 | 2.26721 | 23506 ft | 382 kts | 14° |
| 2026-05-05 15:40 | 42.60594 | 2.27618 | 23885 ft | 387 kts | 14° |
| 2026-05-05 15:40 | 42.63228 | 2.28530 | 24263 ft | 394 kts | 14° |
| 2026-05-05 15:40 | 42.65902 | 2.29462 | 24641 ft | 400 kts | 14° |
| 2026-05-05 15:41 | 42.68615 | 2.30407 | 25021 ft | 404 kts | 14° |
| 2026-05-05 15:41 | 42.71353 | 2.31360 | 25398 ft | 408 kts | 14° |
| 2026-05-05 15:41 | 42.74113 | 2.32323 | 25776 ft | 411 kts | 14° |
| 2026-05-05 15:41 | 42.76892 | 2.33291 | 26154 ft | 414 kts | 14° |
| 2026-05-05 15:42 | 42.79686 | 2.34270 | 26530 ft | 416 kts | 14° |
| 2026-05-05 15:42 | 42.82492 | 2.35246 | 26907 ft | 417 kts | 14° |
| 2026-05-05 15:42 | 42.85305 | 2.36238 | 27282 ft | 418 kts | 14° |
| 2026-05-05 15:42 | 42.88134 | 2.37220 | 27658 ft | 419 kts | 14° |
| 2026-05-05 15:43 | 42.90959 | 2.38218 | 28033 ft | 420 kts | 14° |
| 2026-05-05 15:43 | 42.93794 | 2.39209 | 28407 ft | 420 kts | 14° |
| 2026-05-05 15:43 | 42.96587 | 2.40192 | 28776 ft | 420 kts | 14° |
| 2026-05-05 15:43 | 42.99419 | 2.41185 | 29149 ft | 420 kts | 14° |
| 2026-05-05 15:44 | 43.02250 | 2.42185 | 29521 ft | 420 kts | 14° |
| 2026-05-05 15:44 | 43.05086 | 2.43182 | 29894 ft | 420 kts | 14° |
| 2026-05-05 15:44 | 43.07920 | 2.44182 | 30266 ft | 420 kts | 14° |
| 2026-05-05 15:44 | 43.10752 | 2.45181 | 30639 ft | 419 kts | 14° |
| 2026-05-05 15:45 | 43.13575 | 2.46179 | 31011 ft | 419 kts | 14° |
| 2026-05-05 15:45 | 43.16395 | 2.47176 | 31382 ft | 418 kts | 14° |
| 2026-05-05 15:45 | 43.19217 | 2.48174 | 31754 ft | 418 kts | 14° |
| 2026-05-05 15:45 | 43.22030 | 2.49172 | 32125 ft | 417 kts | 14° |
| 2026-05-05 15:46 | 43.24803 | 2.50154 | 32491 ft | 417 kts | 14° |
| 2026-05-05 15:46 | 43.27607 | 2.51151 | 32861 ft | 416 kts | 14° |
| 2026-05-05 15:46 | 43.30407 | 2.52145 | 33231 ft | 415 kts | 14° |
| 2026-05-05 15:46 | 43.33202 | 2.53139 | 33601 ft | 415 kts | 14° |
| 2026-05-05 15:47 | 43.35998 | 2.54134 | 33962 ft | 414 kts | 14° |
| 2026-05-05 15:47 | 43.41685 | 2.56160 | 33996 ft | 430 kts | 14° |
| 2026-05-05 15:48 | 43.47556 | 2.58257 | 34005 ft | 441 kts | 14° |
| 2026-05-05 15:48 | 43.53559 | 2.60406 | 34011 ft | 449 kts | 14° |
| 2026-05-05 15:49 | 43.59649 | 2.62591 | 34012 ft | 452 kts | 14° |
| 2026-05-05 15:49 | 43.65683 | 2.64759 | 34010 ft | 450 kts | 14° |
| 2026-05-05 15:50 | 43.71738 | 2.66938 | 34012 ft | 448 kts | 14° |
| 2026-05-05 15:50 | 43.77774 | 2.69118 | 34011 ft | 447 kts | 14° |
| 2026-05-05 15:51 | 43.83799 | 2.71291 | 34011 ft | 447 kts | 14° |
| 2026-05-05 15:51 | 43.89823 | 2.73428 | 34010 ft | 446 kts | 14° |
| 2026-05-05 15:52 | 43.95832 | 2.75585 | 34009 ft | 446 kts | 14° |
| 2026-05-05 15:52 | 44.01803 | 2.77724 | 34009 ft | 446 kts | 14° |
| 2026-05-05 15:53 | 44.07805 | 2.79881 | 34008 ft | 445 kts | 14° |
| 2026-05-05 15:53 | 44.13806 | 2.82040 | 34008 ft | 445 kts | 14° |
| 2026-05-05 15:54 | 44.19810 | 2.84208 | 34008 ft | 447 kts | 14° |
| 2026-05-05 15:54 | 44.25884 | 2.86404 | 34012 ft | 453 kts | 14° |
| 2026-05-05 15:55 | 44.32024 | 2.88629 | 34011 ft | 458 kts | 14° |
| 2026-05-05 15:55 | 44.38207 | 2.90875 | 34012 ft | 460 kts | 14° |
| 2026-05-05 15:56 | 44.44422 | 2.93139 | 34011 ft | 462 kts | 14° |
| 2026-05-05 15:56 | 44.50664 | 2.95418 | 34010 ft | 464 kts | 14° |
| 2026-05-05 15:57 | 44.56920 | 2.97707 | 34010 ft | 465 kts | 14° |
| 2026-05-05 15:57 | 44.63186 | 3.00002 | 34010 ft | 465 kts | 14° |
| 2026-05-05 15:58 | 44.69423 | 3.02293 | 34009 ft | 466 kts | 14° |
| 2026-05-05 15:58 | 44.75706 | 3.04603 | 34010 ft | 466 kts | 14° |
| 2026-05-05 15:59 | 44.81984 | 3.06920 | 34011 ft | 466 kts | 14° |
| 2026-05-05 15:59 | 44.88241 | 3.09233 | 34011 ft | 464 kts | 14° |
| 2026-05-05 16:00 | 44.94480 | 3.11544 | 34010 ft | 462 kts | 14° |
| 2026-05-05 16:00 | 45.00689 | 3.13850 | 34009 ft | 461 kts | 14° |
| 2026-05-05 16:01 | 45.06885 | 3.16156 | 34008 ft | 460 kts | 14° |
| 2026-05-05 16:01 | 45.13014 | 3.18559 | 34005 ft | 459 kts | 17° |
| 2026-05-05 16:02 | 45.19154 | 3.21060 | 34004 ft | 459 kts | 15° |
| 2026-05-05 16:02 | 45.25291 | 3.23604 | 34004 ft | 459 kts | 16° |
| 2026-05-05 16:03 | 45.31427 | 3.26142 | 34003 ft | 459 kts | 16° |
| 2026-05-05 16:03 | 45.37562 | 3.28685 | 34003 ft | 459 kts | 16° |
| 2026-05-05 16:04 | 45.43690 | 3.31233 | 34004 ft | 459 kts | 16° |
| 2026-05-05 16:04 | 45.49781 | 3.33768 | 34004 ft | 459 kts | 16° |
| 2026-05-05 16:05 | 45.55910 | 3.36328 | 34003 ft | 459 kts | 16° |
| 2026-05-05 16:05 | 45.62033 | 3.38888 | 34003 ft | 459 kts | 16° |
| 2026-05-05 16:06 | 45.68160 | 3.41458 | 34003 ft | 459 kts | 16° |
| 2026-05-05 16:06 | 45.74282 | 3.44030 | 34004 ft | 458 kts | 16° |
| 2026-05-05 16:07 | 45.80407 | 3.46611 | 34004 ft | 458 kts | 16° |
| 2026-05-05 16:07 | 45.86532 | 3.49197 | 34004 ft | 458 kts | 16° |
| 2026-05-05 16:08 | 45.92662 | 3.51758 | 34004 ft | 458 kts | 16° |
| 2026-05-05 16:08 | 45.98792 | 3.54328 | 34004 ft | 459 kts | 16° |
| 2026-05-05 16:09 | 46.04886 | 3.56890 | 34004 ft | 459 kts | 16° |
| 2026-05-05 16:09 | 46.11009 | 3.59469 | 34004 ft | 459 kts | 16° |
| 2026-05-05 16:10 | 46.17144 | 3.62060 | 34004 ft | 459 kts | 16° |
| 2026-05-05 16:10 | 46.23233 | 3.64637 | 34004 ft | 458 kts | 16° |
| 2026-05-05 16:11 | 46.29360 | 3.67237 | 34005 ft | 458 kts | 16° |
| 2026-05-05 16:12 | 46.41617 | 3.72455 | 34005 ft | 458 kts | 16° |
| 2026-05-05 16:13 | 46.56888 | 3.78996 | 34006 ft | 458 kts | 16° |
| 2026-05-05 16:13 | 46.63006 | 3.81625 | 34007 ft | 458 kts | 16° |
| 2026-05-05 16:14 | 46.75255 | 3.86908 | 34007 ft | 458 kts | 16° |
| 2026-05-05 16:15 | 46.87457 | 3.92195 | 34008 ft | 458 kts | 16° |
| 2026-05-05 16:16 | 46.98663 | 3.97070 | 34008 ft | 458 kts | 16° |
| 2026-05-05 16:17 | 47.07843 | 4.01088 | 34008 ft | 458 kts | 16° |
| 2026-05-05 16:18 | 47.17014 | 4.05106 | 34008 ft | 458 kts | 16° |
| 2026-05-05 16:19 | 47.26179 | 4.09145 | 34009 ft | 458 kts | 17° |
| 2026-05-05 16:19 | 47.35352 | 4.13195 | 34009 ft | 458 kts | 16° |
| 2026-05-05 16:20 | 47.47537 | 4.18603 | 34009 ft | 458 kts | 16° |
| 2026-05-05 16:22 | 47.62820 | 4.25420 | 34009 ft | 458 kts | 17° |
| 2026-05-05 16:23 | 47.75265 | 4.29411 | 34005 ft | 458 kts | 11° |
| 2026-05-05 16:23 | 47.84601 | 4.32151 | 34006 ft | 458 kts | 11° |
| 2026-05-05 16:24 | 47.90857 | 4.33996 | 34006 ft | 458 kts | 11° |
| 2026-05-05 16:25 | 48.00242 | 4.36754 | 34007 ft | 458 kts | 11° |
| 2026-05-05 16:25 | 48.09627 | 4.39536 | 34007 ft | 458 kts | 11° |
| 2026-05-05 16:26 | 48.22062 | 4.43795 | 34005 ft | 458 kts | 13° |
| 2026-05-05 16:27 | 48.28256 | 4.46040 | 34006 ft | 458 kts | 13° |
| 2026-05-05 16:27 | 48.34413 | 4.48292 | 34006 ft | 458 kts | 13° |
| 2026-05-05 16:28 | 48.40613 | 4.50552 | 34006 ft | 458 kts | 13° |
| 2026-05-05 16:28 | 48.46812 | 4.52826 | 34007 ft | 458 kts | 13° |
| 2026-05-05 16:29 | 48.53012 | 4.55100 | 34007 ft | 458 kts | 13° |
| 2026-05-05 16:29 | 48.59211 | 4.57383 | 34007 ft | 458 kts | 13° |
| 2026-05-05 16:30 | 48.65404 | 4.59669 | 34007 ft | 458 kts | 13° |
| 2026-05-05 16:30 | 48.71565 | 4.61948 | 34007 ft | 458 kts | 13° |
| 2026-05-05 16:31 | 48.77757 | 4.64245 | 34007 ft | 458 kts | 13° |
| 2026-05-05 16:31 | 48.83955 | 4.66549 | 34008 ft | 458 kts | 13° |
| 2026-05-05 16:32 | 48.90158 | 4.68863 | 34008 ft | 458 kts | 13° |
| 2026-05-05 16:32 | 48.96350 | 4.71177 | 34008 ft | 458 kts | 13° |
| 2026-05-05 16:33 | 49.02541 | 4.73499 | 34008 ft | 458 kts | 13° |
| 2026-05-05 16:33 | 49.08738 | 4.75827 | 34009 ft | 458 kts | 13° |
| 2026-05-05 16:34 | 49.14940 | 4.78163 | 34009 ft | 458 kts | 13° |
| 2026-05-05 16:34 | 49.21129 | 4.80502 | 34009 ft | 458 kts | 13° |
| 2026-05-05 16:35 | 49.27277 | 4.82831 | 34009 ft | 458 kts | 13° |
| 2026-05-05 16:35 | 49.33483 | 4.85187 | 34009 ft | 458 kts | 13° |
| 2026-05-05 16:36 | 49.39671 | 4.87543 | 34009 ft | 458 kts | 13° |
| 2026-05-05 16:36 | 49.45858 | 4.89906 | 34009 ft | 458 kts | 13° |
| 2026-05-05 16:37 | 49.52063 | 4.92280 | 34010 ft | 458 kts | 14° |
| 2026-05-05 16:37 | 49.58262 | 4.94658 | 34010 ft | 458 kts | 14° |
| 2026-05-05 16:38 | 49.61325 | 4.95834 | 33720 ft | 464 kts | 14° |
| 2026-05-05 16:38 | 49.64501 | 4.97056 | 33103 ft | 476 kts | 14° |
| 2026-05-05 16:38 | 49.67749 | 4.98311 | 32463 ft | 482 kts | 14° |
| 2026-05-05 16:38 | 49.70942 | 4.99544 | 31832 ft | 464 kts | 14° |
| 2026-05-05 16:39 | 49.74025 | 5.00732 | 31224 ft | 449 kts | 14° |
| 2026-05-05 16:39 | 49.76978 | 5.02049 | 30631 ft | 436 kts | 20° |
| 2026-05-05 16:39 | 49.79665 | 5.04074 | 30062 ft | 424 kts | 30° |
| 2026-05-05 16:39 | 49.82154 | 5.06450 | 29506 ft | 415 kts | 32° |
| 2026-05-05 16:40 | 49.84582 | 5.08771 | 28960 ft | 406 kts | 31° |
| 2026-05-05 16:40 | 49.86967 | 5.11043 | 28425 ft | 399 kts | 31° |
| 2026-05-05 16:40 | 49.89318 | 5.13270 | 27899 ft | 392 kts | 31° |
| 2026-05-05 16:40 | 49.91618 | 5.15477 | 27382 ft | 386 kts | 31° |
| 2026-05-05 16:41 | 49.93887 | 5.17642 | 26873 ft | 380 kts | 31° |
| 2026-05-05 16:41 | 49.96120 | 5.19788 | 26371 ft | 375 kts | 32° |
| 2026-05-05 16:41 | 49.98329 | 5.21896 | 25876 ft | 370 kts | 31° |
| 2026-05-05 16:41 | 50.00512 | 5.23996 | 25385 ft | 366 kts | 32° |
| 2026-05-05 16:42 | 50.02668 | 5.26063 | 24901 ft | 362 kts | 31° |
| 2026-05-05 16:42 | 50.04801 | 5.28117 | 24439 ft | 358 kts | 32° |
| 2026-05-05 16:42 | 50.06914 | 5.30148 | 23987 ft | 354 kts | 31° |
| 2026-05-05 16:42 | 50.08976 | 5.32136 | 23546 ft | 351 kts | 32° |
| 2026-05-05 16:43 | 50.11048 | 5.34133 | 23100 ft | 348 kts | 31° |
| 2026-05-05 16:43 | 50.13096 | 5.36110 | 22657 ft | 345 kts | 32° |
| 2026-05-05 16:43 | 50.15159 | 5.37983 | 22216 ft | 341 kts | 26° |
| 2026-05-05 16:43 | 50.17310 | 5.39534 | 21784 ft | 340 kts | 25° |
| 2026-05-05 16:44 | 50.19436 | 5.41150 | 21331 ft | 342 kts | 26° |
| 2026-05-05 16:44 | 50.21575 | 5.42791 | 20865 ft | 343 kts | 26° |
| 2026-05-05 16:44 | 50.23730 | 5.44428 | 20398 ft | 344 kts | 26° |
| 2026-05-05 16:44 | 50.25890 | 5.46053 | 19935 ft | 345 kts | 25° |
| 2026-05-05 16:45 | 50.28050 | 5.47687 | 19474 ft | 345 kts | 26° |
| 2026-05-05 16:45 | 50.30206 | 5.49333 | 19015 ft | 345 kts | 26° |
| 2026-05-05 16:45 | 50.32364 | 5.50966 | 18558 ft | 344 kts | 26° |
| 2026-05-05 16:45 | 50.34519 | 5.52612 | 18102 ft | 344 kts | 26° |
| 2026-05-05 16:46 | 50.36646 | 5.54222 | 17654 ft | 343 kts | 26° |
| 2026-05-05 16:46 | 50.38779 | 5.55858 | 17209 ft | 341 kts | 26° |
| 2026-05-05 16:46 | 50.40910 | 5.57475 | 16766 ft | 339 kts | 26° |
| 2026-05-05 16:46 | 50.43026 | 5.59098 | 16326 ft | 337 kts | 26° |
| 2026-05-05 16:47 | 50.45130 | 5.60702 | 15887 ft | 336 kts | 25° |
| 2026-05-05 16:47 | 50.47222 | 5.62305 | 15451 ft | 334 kts | 26° |
| 2026-05-05 16:47 | 50.49313 | 5.63906 | 15013 ft | 333 kts | 25° |
| 2026-05-05 16:47 | 50.51485 | 5.65084 | 14568 ft | 330 kts | 11° |
| 2026-05-05 16:48 | 50.53762 | 5.65454 | 14133 ft | 328 kts | 360° |
| 2026-05-05 16:48 | 50.56022 | 5.64981 | 13698 ft | 327 kts | 346° |
| 2026-05-05 16:48 | 50.58149 | 5.63767 | 13262 ft | 325 kts | 332° |
| 2026-05-05 16:48 | 50.60042 | 5.61851 | 12832 ft | 324 kts | 321° |
| 2026-05-05 16:49 | 50.61605 | 5.59310 | 12403 ft | 322 kts | 308° |
| 2026-05-05 16:49 | 50.62770 | 5.56331 | 11976 ft | 317 kts | 294° |
| 2026-05-05 16:49 | 50.63644 | 5.53184 | 11565 ft | 312 kts | 294° |
| 2026-05-05 16:49 | 50.64502 | 5.50075 | 11149 ft | 307 kts | 287° |
| 2026-05-05 16:50 | 50.64850 | 5.46823 | 10750 ft | 303 kts | 274° |
| 2026-05-05 16:50 | 50.64759 | 5.43529 | 10346 ft | 300 kts | 259° |
| 2026-05-05 16:50 | 50.64245 | 5.40351 | 9954 ft | 298 kts | 255° |
| 2026-05-05 16:50 | 50.63721 | 5.37194 | 9559 ft | 297 kts | 255° |
| 2026-05-05 16:51 | 50.63166 | 5.34060 | 9164 ft | 295 kts | 254° |
| 2026-05-05 16:51 | 50.62628 | 5.30951 | 8773 ft | 293 kts | 255° |
| 2026-05-05 16:51 | 50.62096 | 5.27875 | 8386 ft | 289 kts | 254° |
| 2026-05-05 16:51 | 50.61571 | 5.24841 | 8004 ft | 286 kts | 255° |
| 2026-05-05 16:52 | 50.61050 | 5.21836 | 7679 ft | 281 kts | 254° |
| 2026-05-05 16:52 | 50.60533 | 5.18915 | 7386 ft | 274 kts | 253° |
| 2026-05-05 16:52 | 50.59709 | 5.16256 | 7029 ft | 269 kts | 234° |
| 2026-05-05 16:52 | 50.58489 | 5.14049 | 6676 ft | 266 kts | 221° |
| 2026-05-05 16:53 | 50.56870 | 5.12710 | 6325 ft | 262 kts | 198° |
| 2026-05-05 16:53 | 50.55105 | 5.12313 | 5981 ft | 254 kts | 176° |
| 2026-05-05 16:53 | 50.53409 | 5.12922 | 5650 ft | 248 kts | 159° |
| 2026-05-05 16:53 | 50.51982 | 5.14393 | 5325 ft | 244 kts | 138° |
| 2026-05-05 16:54 | 50.50972 | 5.16433 | 5008 ft | 238 kts | 118° |
| 2026-05-05 16:54 | 50.50447 | 5.18843 | 4699 ft | 231 kts | 100° |
| 2026-05-05 16:54 | 50.50448 | 5.21331 | 4397 ft | 226 kts | 82° |
| 2026-05-05 16:54 | 50.50935 | 5.23661 | 3993 ft | 226 kts | 61° |
| 2026-05-05 16:55 | 50.51864 | 5.25613 | 3690 ft | 221 kts | 48° |
| 2026-05-05 16:55 | 50.52929 | 5.27330 | 3399 ft | 217 kts | 44° |
| 2026-05-05 16:55 | 50.53977 | 5.28956 | 3119 ft | 204 kts | 45° |
| 2026-05-05 16:55 | 50.54920 | 5.30475 | 2854 ft | 180 kts | 45° |
| 2026-05-05 16:56 | 50.55761 | 5.31766 | 2624 ft | 160 kts | 45° |
| 2026-05-05 16:56 | 50.56514 | 5.33004 | 2416 ft | 155 kts | 45° |
| 2026-05-05 16:56 | 50.57289 | 5.34176 | 2214 ft | 154 kts | 45° |
| 2026-05-05 16:56 | 50.58022 | 5.35393 | 2013 ft | 153 kts | 46° |
| 2026-05-05 16:57 | 50.58788 | 5.36551 | 1811 ft | 152 kts | 44° |
| 2026-05-05 16:57 | 50.59517 | 5.37754 | 1610 ft | 152 kts | 46° |
| 2026-05-05 16:57 | 50.60244 | 5.38868 | 1427 ft | 140 kts | 43° |
| 2026-05-05 16:57 | 50.60887 | 5.39912 | 1242 ft | 125 kts | 47° |
| 2026-05-05 16:58 | 50.61485 | 5.40834 | 1078 ft | 116 kts | 42° |
| 2026-05-05 16:58 | 50.62039 | 5.41712 | 941 ft | 110 kts | 46° |
| 2026-05-05 16:58 | 50.62575 | 5.42562 | 793 ft | 107 kts | 45° |
| 2026-05-05 16:58 | 50.63097 | 5.43388 | 652 ft | 102 kts | 45° |
| 2026-05-05 16:59 | 50.63553 | 5.44113 | 623 ft | 86 kts | 45° |
| 2026-05-05 16:59 | 50.63907 | 5.44674 | 607 ft | 60 kts | 45° |
| 2026-05-05 16:59 | 50.64194 | 5.45129 | 591 ft | 57 kts | 45° |
| 2026-05-05 16:59 | 50.64384 | 5.45443 | 598 ft | 18 kts | 65° |
| 2026-05-05 17:00 | 50.64389 | 5.45621 | 605 ft | 14 kts | 92° |
| 2026-05-05 17:00 | 50.64390 | 5.45776 | 611 ft | 16 kts | 76° |
| 2026-05-05 17:00 | 50.64461 | 5.45917 | 611 ft | 18 kts | 45° |
| 2026-05-05 17:00 | 50.64552 | 5.46061 | 611 ft | 19 kts | 45° |
| 2026-05-05 17:01 | 50.64656 | 5.46225 | 611 ft | 24 kts | 45° |
| 2026-05-05 17:01 | 50.64775 | 5.46414 | 611 ft | 25 kts | 45° |
| 2026-05-05 17:01 | 50.64897 | 5.46609 | 611 ft | 23 kts | 45° |
| 2026-05-05 17:01 | 50.64956 | 5.46702 | 611 ft | 17 kts | 47° |
| 2026-05-05 17:02 | 50.64953 | 5.46892 | 611 ft | 5 kts | 88° |
| 2026-05-05 17:02 | 50.64967 | 5.46901 | 611 ft | 1 kts | 269° |
| 2026-05-05 17:02 | 50.64966 | 5.46896 | 611 ft | 0 kts | 229° |
| 2026-05-05 17:02 | 50.64965 | 5.46896 | 611 ft | 0 kts | 226° |